Time;durP1;ratioP1;P1;durP2;ratioP2;P2;SDS_P1;SDS_P2;PMS_P1;PMS_P2;Temp;Humidity;BMP_temperature;BMP_pressure;BME280_temperature;BME280_humidity;BME280_pressure;Samples;Min_cycle;Max_cycle;Signal;HPM_P1;HPM_P2
2021/05/24 00:01:25;;;;;;;2.50;0.80;;;9.80;99.90;;;;;;5061392;28;20104;-81
2021/05/24 00:03:50;;;;;;;2.55;0.93;;;9.80;99.90;;;;;;5073090;28;20033;-81
2021/05/24 00:06:16;;;;;;;4.03;1.05;;;9.70;99.90;;;;;;5073401;28;20099;-80
2021/05/24 00:08:41;;;;;;;3.05;1.02;;;9.80;99.90;;;;;;5063186;28;20092;-84
2021/05/24 00:11:08;;;;;;;3.20;1.00;;;9.80;99.90;;;;;;5054612;28;20032;-84
2021/05/24 00:13:33;;;;;;;3.38;0.90;;;9.70;99.90;;;;;;5037383;28;20466;-84
2021/05/24 00:15:59;;;;;;;2.85;1.02;;;9.70;99.90;;;;;;5055287;28;20086;-84
2021/05/24 00:18:25;;;;;;;2.80;1.00;;;9.70;99.90;;;;;;5054515;28;20029;-84
2021/05/24 00:20:53;;;;;;;2.35;0.90;;;9.70;99.90;;;;;;5053070;28;20033;-82
2021/05/24 00:23:19;;;;;;;3.17;1.00;;;9.60;99.90;;;;;;5055286;28;20146;-84
2021/05/24 00:25:46;;;;;;;3.45;1.10;;;9.50;99.90;;;;;;5037149;28;20078;-82
2021/05/24 00:28:13;;;;;;;2.75;0.95;;;9.60;99.90;;;;;;5037582;28;20033;-84
2021/05/24 00:30:44;;;;;;;2.70;1.00;;;9.50;99.90;;;;;;5036374;28;20083;-81
2021/05/24 00:33:11;;;;;;;2.30;0.90;;;9.50;99.90;;;;;;5055322;28;20082;-83
2021/05/24 00:35:36;;;;;;;3.17;1.08;;;9.40;99.90;;;;;;5036798;28;20120;-84
2021/05/24 00:38:05;;;;;;;2.63;1.02;;;9.30;99.90;;;;;;5054743;28;20067;-84
2021/05/24 00:40:31;;;;;;;2.35;0.90;;;9.30;99.90;;;;;;5036274;28;20036;-81
2021/05/24 00:42:57;;;;;;;5.22;1.05;;;9.30;99.90;;;;;;5036283;28;20691;-84
2021/05/24 00:45:23;;;;;;;3.35;0.90;;;9.30;99.90;;;;;;5037313;28;20174;-84
2021/05/24 00:47:49;;;;;;;4.68;0.80;;;9.30;99.90;;;;;;5071886;28;20032;-83
2021/05/24 00:50:15;;;;;;;3.08;1.00;;;9.30;99.90;;;;;;5074971;28;20027;-83
2021/05/24 00:52:41;;;;;;;2.92;1.10;;;9.30;99.90;;;;;;5075419;28;20043;-84
2021/05/24 00:55:08;;;;;;;2.42;0.95;;;9.30;99.90;;;;;;5058495;28;20036;-83
2021/05/24 00:57:34;;;;;;;2.67;0.90;;;9.30;99.90;;;;;;5036743;28;20508;-83
2021/05/24 01:00:00;;;;;;;3.55;1.27;;;9.30;99.90;;;;;;5072137;28;20389;-84
2021/05/24 01:02:25;;;;;;;3.65;1.35;;;9.20;99.90;;;;;;5053654;28;20036;-84
2021/05/24 01:04:51;;;;;;;2.35;0.98;;;9.20;99.90;;;;;;5055687;28;20029;-83
2021/05/24 01:07:17;;;;;;;2.90;1.10;;;9.20;99.90;;;;;;5055286;28;20029;-84
2021/05/24 01:09:43;;;;;;;2.97;1.00;;;9.30;99.90;;;;;;5049030;28;20082;-84
2021/05/24 01:12:10;;;;;;;2.40;1.05;;;9.20;99.90;;;;;;5036879;28;20114;-84
2021/05/24 01:14:36;;;;;;;3.80;1.10;;;9.20;99.90;;;;;;5055266;28;20039;-84
2021/05/24 01:17:02;;;;;;;2.88;1.08;;;9.20;99.90;;;;;;5054344;28;20604;-83
2021/05/24 01:19:27;;;;;;;5.82;1.60;;;9.20;99.90;;;;;;5053994;28;20051;-84
2021/05/24 01:21:53;;;;;;;2.67;1.15;;;9.20;99.90;;;;;;5053021;28;20128;-82
2021/05/24 01:24:20;;;;;;;2.42;1.20;;;9.20;99.90;;;;;;5054519;28;20025;-84
2021/05/24 01:26:46;;;;;;;2.63;1.10;;;9.10;99.90;;;;;;5054525;28;20029;-84
2021/05/24 01:29:11;;;;;;;2.55;1.13;;;9.10;99.90;;;;;;5035871;28;20531;-83
2021/05/24 01:31:38;;;;;;;2.25;1.05;;;9.10;99.90;;;;;;5036087;28;20044;-83
2021/05/24 01:34:04;;;;;;;3.20;0.90;;;9.10;99.90;;;;;;5036151;28;20127;-82
2021/05/24 01:36:30;;;;;;;4.13;1.17;;;9.00;99.90;;;;;;5053860;28;20025;-82
2021/05/24 01:38:55;;;;;;;2.83;1.00;;;9.10;99.90;;;;;;5035833;28;20036;-83
2021/05/24 01:41:21;;;;;;;3.15;1.10;;;9.10;99.90;;;;;;5057457;28;20115;-84
2021/05/24 01:43:48;;;;;;;2.17;1.00;;;9.00;99.90;;;;;;5058161;28;20033;-82
2021/05/24 01:46:14;;;;;;;4.25;1.13;;;9.10;99.90;;;;;;5058803;28;20106;-83
2021/05/24 01:48:40;;;;;;;2.58;0.93;;;9.00;99.90;;;;;;5057047;28;20021;-82
2021/05/24 01:51:06;;;;;;;2.88;1.25;;;9.00;99.90;;;;;;5056429;28;20052;-83
2021/05/24 01:53:33;;;;;;;2.50;1.00;;;9.00;99.90;;;;;;5048522;28;20033;-83
2021/05/24 01:55:59;;;;;;;3.15;1.00;;;9.00;99.90;;;;;;5040579;28;20029;-81
2021/05/24 01:58:26;;;;;;;2.20;0.93;;;8.90;99.90;;;;;;5044777;28;20047;-86
2021/05/24 02:00:59;;;;;;;2.33;0.80;;;8.90;99.90;;;;;;5073915;28;20195;-83
2021/05/24 02:03:24;;;;;;;2.85;1.38;;;8.90;99.90;;;;;;5058174;28;20025;-83
2021/05/24 02:05:50;;;;;;;2.55;1.10;;;8.90;99.90;;;;;;5057685;28;20420;-83
2021/05/24 02:08:15;;;;;;;2.53;1.00;;;8.80;99.90;;;;;;5058987;28;20109;-82
2021/05/24 02:10:41;;;;;;;5.20;1.20;;;8.80;99.90;;;;;;5056774;28;20029;-84
2021/05/24 02:13:08;;;;;;;3.53;1.10;;;8.80;99.90;;;;;;5058310;28;20047;-83
2021/05/24 02:15:36;;;;;;;6.28;1.45;;;8.70;99.90;;;;;;5040166;28;20036;-82
2021/05/24 02:18:02;;;;;;;4.38;1.33;;;8.70;99.90;;;;;;5057090;28;20029;-83
2021/05/24 02:20:28;;;;;;;2.70;1.05;;;8.70;99.90;;;;;;5039081;28;20033;-83
2021/05/24 02:22:56;;;;;;;2.97;1.27;;;8.70;99.90;;;;;;5059203;28;20025;-83
2021/05/24 02:25:22;;;;;;;3.13;1.17;;;8.70;99.90;;;;;;5043096;28;20056;-82
2021/05/24 02:27:49;;;;;;;2.65;1.00;;;8.70;99.90;;;;;;5059476;28;20447;-84
2021/05/24 02:30:16;;;;;;;2.97;1.20;;;8.70;99.90;;;;;;5060295;28;20025;-83
2021/05/24 02:32:42;;;;;;;2.60;1.33;;;8.70;99.90;;;;;;5068516;28;20021;-81
2021/05/24 02:35:11;;;;;;;2.42;0.95;;;8.60;99.90;;;;;;5062264;28;20029;-83
2021/05/24 02:37:38;;;;;;;3.83;1.23;;;8.60;99.90;;;;;;5080743;28;20120;-83
2021/05/24 02:40:06;;;;;;;3.58;1.05;;;8.60;99.90;;;;;;5080270;28;20088;-80
2021/05/24 02:42:32;;;;;;;2.22;1.02;;;8.70;99.90;;;;;;5073177;28;20044;-84
2021/05/24 02:44:57;;;;;;;2.30;1.08;;;8.70;99.90;;;;;;5060199;28;20029;-84
2021/05/24 02:47:23;;;;;;;3.55;1.17;;;8.70;99.90;;;;;;5042181;28;20029;-84
2021/05/24 02:49:48;;;;;;;2.30;0.95;;;8.70;99.90;;;;;;5065530;28;20085;-82
2021/05/24 02:52:14;;;;;;;2.17;1.10;;;8.70;99.90;;;;;;5065656;28;20167;-81
2021/05/24 02:54:40;;;;;;;3.17;1.13;;;8.70;99.90;;;;;;5059621;28;20029;-83
2021/05/24 02:57:06;;;;;;;3.88;1.23;;;8.70;99.90;;;;;;5041420;28;20071;-84
2021/05/24 02:59:31;;;;;;;3.63;1.17;;;8.70;99.90;;;;;;5051083;28;20093;-83
2021/05/24 03:02:00;;;;;;;3.10;1.25;;;8.70;99.90;;;;;;5040974;28;20056;-83
2021/05/24 03:04:28;;;;;;;3.05;1.30;;;8.70;99.90;;;;;;5041315;28;20036;-83
2021/05/24 03:06:54;;;;;;;2.63;1.27;;;8.70;99.90;;;;;;5063991;28;20047;-83
2021/05/24 03:09:19;;;;;;;2.90;1.13;;;8.70;99.90;;;;;;5041136;28;20478;-84
2021/05/24 03:11:45;;;;;;;3.75;1.38;;;8.70;99.90;;;;;;5058909;28;20021;-83
2021/05/24 03:14:11;;;;;;;3.92;1.30;;;8.70;99.90;;;;;;5059601;28;20029;-81
2021/05/24 03:16:37;;;;;;;3.33;1.30;;;8.60;99.90;;;;;;5058874;28;20033;-80
2021/05/24 03:19:04;;;;;;;2.78;1.30;;;8.70;99.90;;;;;;5058909;28;20029;-82
2021/05/24 03:21:29;;;;;;;2.47;1.40;;;8.60;99.90;;;;;;5057582;28;20033;-83
2021/05/24 03:23:55;;;;;;;3.58;1.35;;;8.70;99.90;;;;;;5057137;28;20071;-83
2021/05/24 03:26:21;;;;;;;3.92;1.30;;;8.70;99.90;;;;;;5059140;28;20029;-81
2021/05/24 03:28:46;;;;;;;4.13;1.30;;;8.70;99.90;;;;;;5058938;28;20021;-83
2021/05/24 03:31:12;;;;;;;3.15;1.30;;;8.70;99.90;;;;;;5058340;28;20393;-84
2021/05/24 03:33:40;;;;;;;3.10;1.20;;;8.70;99.90;;;;;;5057407;28;20033;-84
2021/05/24 03:36:06;;;;;;;3.80;1.40;;;8.70;99.90;;;;;;5055301;28;20119;-81
2021/05/24 03:38:32;;;;;;;5.32;1.40;;;8.70;99.90;;;;;;5036598;28;20044;-82
2021/05/24 03:40:58;;;;;;;4.35;1.30;;;8.70;99.90;;;;;;5041797;28;20112;-82
2021/05/24 03:43:24;;;;;;;3.42;1.33;;;8.80;99.90;;;;;;5056601;28;20028;-82
2021/05/24 03:45:50;;;;;;;2.92;1.10;;;8.70;99.90;;;;;;5055556;28;20037;-83
2021/05/24 03:48:15;;;;;;;4.00;1.70;;;8.70;99.90;;;;;;5054341;28;20029;-84
2021/05/24 03:50:42;;;;;;;3.65;1.20;;;8.70;99.90;;;;;;5053345;28;20075;-84
2021/05/24 03:53:07;;;;;;;2.55;1.17;;;8.70;99.90;;;;;;5052324;28;20057;-84
2021/05/24 03:55:33;;;;;;;2.33;1.17;;;8.70;99.90;;;;;;5035897;28;20393;-83
2021/05/24 03:57:58;;;;;;;3.45;1.20;;;8.70;99.90;;;;;;5054518;28;20036;-83
2021/05/24 04:00:24;;;;;;;3.55;1.35;;;8.70;99.90;;;;;;5073013;28;20025;-82
2021/05/24 04:02:50;;;;;;;3.08;1.42;;;8.70;99.90;;;;;;5040020;28;20040;-81
2021/05/24 04:05:30;;;;;;;3.33;1.23;;;8.80;99.90;;;;;;5036007;28;20036;-83
2021/05/24 04:07:57;;;;;;;3.42;1.40;;;8.80;99.90;;;;;;5035654;28;20024;-82
2021/05/24 04:10:31;;;;;;;2.97;1.40;;;8.80;99.90;;;;;;5051123;28;20043;-82
2021/05/24 04:12:56;;;;;;;3.88;1.33;;;8.80;99.90;;;;;;5051767;28;20112;-83
2021/05/24 04:15:22;;;;;;;3.10;1.10;;;8.80;99.90;;;;;;5035581;28;20588;-84
2021/05/24 04:17:49;;;;;;;2.88;1.08;;;8.80;99.90;;;;;;5057370;28;20041;-85
2021/05/24 04:20:16;;;;;;;2.10;1.02;;;8.80;99.90;;;;;;5039630;28;20119;-85
2021/05/24 04:22:42;;;;;;;2.83;1.20;;;8.80;99.90;;;;;;5038962;28;20444;-85
2021/05/24 04:25:09;;;;;;;1.67;0.80;;;8.90;99.90;;;;;;5055914;28;20508;-84
2021/05/24 04:27:35;;;;;;;2.50;1.08;;;8.90;99.90;;;;;;5057344;28;20028;-83
2021/05/24 04:30:01;;;;;;;2.55;0.93;;;8.90;99.90;;;;;;5057421;28;20101;-82
2021/05/24 04:32:27;;;;;;;3.83;1.00;;;9.00;99.90;;;;;;5056727;28;20052;-82
2021/05/24 04:34:53;;;;;;;2.75;0.98;;;9.00;99.90;;;;;;5057565;28;20040;-85
2021/05/24 04:37:18;;;;;;;2.05;0.93;;;9.00;99.90;;;;;;5056237;28;20028;-85
2021/05/24 04:39:45;;;;;;;2.08;0.90;;;9.00;99.90;;;;;;5039528;28;20017;-85
2021/05/24 04:42:11;;;;;;;1.35;0.73;;;9.10;99.90;;;;;;5066193;28;20035;-84
2021/05/24 04:44:37;;;;;;;1.83;0.77;;;9.10;99.90;;;;;;5040073;28;20039;-84
2021/05/24 04:47:03;;;;;;;2.17;0.75;;;9.10;99.90;;;;;;5058938;28;20077;-85
2021/05/24 04:49:31;;;;;;;3.67;1.13;;;9.20;99.90;;;;;;5062385;28;20035;-85
2021/05/24 04:52:00;;;;;;;3.08;1.00;;;9.20;99.90;;;;;;5046090;28;20025;-84
2021/05/24 04:54:26;;;;;;;2.92;0.90;;;9.30;99.90;;;;;;5057906;28;20107;-83
2021/05/24 04:56:52;;;;;;;1.85;0.80;;;9.30;99.90;;;;;;5055956;28;20025;-84
2021/05/24 04:59:18;;;;;;;3.28;1.00;;;9.40;99.90;;;;;;5068434;28;20099;-85
2021/05/24 05:01:44;;;;;;;3.28;1.50;;;9.40;99.90;;;;;;5038380;28;20074;-84
2021/05/24 05:04:10;;;;;;;3.35;1.15;;;9.40;99.90;;;;;;5056413;28;20537;-85
2021/05/24 05:06:35;;;;;;;2.90;1.08;;;9.40;99.90;;;;;;5055640;28;20031;-84
2021/05/24 05:09:03;;;;;;;2.28;1.02;;;9.50;99.90;;;;;;5038567;28;20049;-85
2021/05/24 05:11:29;;;;;;;2.97;1.00;;;9.50;99.90;;;;;;5067218;28;20017;-85
2021/05/24 05:13:54;;;;;;;4.05;1.00;;;9.50;99.90;;;;;;5067592;28;20028;-84
2021/05/24 05:16:20;;;;;;;2.33;0.85;;;9.50;99.90;;;;;;5061731;28;20115;-83
2021/05/24 05:18:45;;;;;;;2.25;0.88;;;9.60;99.90;;;;;;5071197;28;20047;-84
2021/05/24 05:21:11;;;;;;;2.55;0.98;;;9.70;99.90;;;;;;5037674;28;20313;-85
2021/05/24 05:23:36;;;;;;;1.83;0.60;;;9.80;99.90;;;;;;5055812;28;20055;-85
2021/05/24 05:26:02;;;;;;;3.55;0.70;;;9.80;99.90;;;;;;5055749;28;20025;-82
2021/05/24 05:28:28;;;;;;;1.90;0.60;;;9.80;99.90;;;;;;5038563;28;20056;-82
2021/05/24 05:30:53;;;;;;;2.80;0.95;;;9.90;99.90;;;;;;5037105;28;20492;-84
2021/05/24 05:33:19;;;;;;;4.47;0.80;;;9.90;99.90;;;;;;5055417;28;20040;-85
2021/05/24 05:35:48;;;;;;;1.45;0.60;;;10.00;99.90;;;;;;5051509;28;20029;-85
2021/05/24 05:38:15;;;;;;;2.90;0.70;;;10.10;99.90;;;;;;5056825;28;20044;-84
2021/05/24 05:40:41;;;;;;;2.28;0.60;;;10.10;99.90;;;;;;5056717;28;20028;-81
2021/05/24 05:43:07;;;;;;;3.95;0.70;;;10.20;99.90;;;;;;5057930;28;20031;-85
2021/05/24 05:45:32;;;;;;;3.85;1.05;;;10.30;99.90;;;;;;5060413;28;20354;-82
2021/05/24 05:48:00;;;;;;;4.35;0.90;;;10.20;99.90;;;;;;5055238;28;20121;-85
2021/05/24 05:50:26;;;;;;;1.25;0.70;;;10.30;99.90;;;;;;5053645;28;20770;-85
2021/05/24 05:52:52;;;;;;;1.55;0.68;;;10.30;99.90;;;;;;5063266;28;20025;-83
2021/05/24 05:55:17;;;;;;;1.98;0.47;;;10.40;99.90;;;;;;5043919;28;20032;-84
2021/05/24 05:57:43;;;;;;;1.85;0.60;;;10.40;99.90;;;;;;5057868;28;20114;-82
2021/05/24 06:00:09;;;;;;;3.00;0.90;;;10.50;99.90;;;;;;5059757;28;20370;-84
2021/05/24 06:02:35;;;;;;;2.05;0.77;;;10.50;99.90;;;;;;5074618;28;20139;-83
2021/05/24 06:05:00;;;;;;;2.38;0.90;;;10.50;99.90;;;;;;5059380;28;20040;-84
2021/05/24 06:07:26;;;;;;;3.78;0.90;;;10.60;99.90;;;;;;5059083;28;20032;-82
2021/05/24 06:09:51;;;;;;;2.15;0.70;;;10.60;99.90;;;;;;5045897;28;20032;-84
2021/05/24 06:12:17;;;;;;;2.53;0.77;;;10.60;99.90;;;;;;5060469;28;20024;-83
2021/05/24 06:14:45;;;;;;;3.55;0.88;;;10.70;99.90;;;;;;5079109;28;20416;-84
2021/05/24 06:17:11;;;;;;;4.00;0.80;;;10.70;99.90;;;;;;5079142;28;20028;-85
2021/05/24 06:19:36;;;;;;;2.30;0.80;;;10.70;99.90;;;;;;5065517;28;20082;-84
2021/05/24 06:22:02;;;;;;;3.30;0.88;;;10.70;99.90;;;;;;5060960;28;20028;-83
2021/05/24 06:24:28;;;;;;;2.53;0.80;;;10.60;99.90;;;;;;5071484;28;20398;-82
2021/05/24 06:26:53;;;;;;;2.20;0.80;;;10.70;99.90;;;;;;5070318;28;20044;-84
2021/05/24 06:29:23;;;;;;;2.17;0.70;;;10.80;99.90;;;;;;5058681;28;20081;-83
2021/05/24 06:31:51;;;;;;;2.28;0.68;;;10.70;99.90;;;;;;5039402;28;20055;-84
2021/05/24 06:34:16;;;;;;;2.67;0.60;;;10.70;99.90;;;;;;5040542;28;20025;-84
2021/05/24 06:36:42;;;;;;;2.25;0.80;;;10.70;99.90;;;;;;5057758;28;20051;-82
2021/05/24 06:39:08;;;;;;;1.95;0.80;;;10.80;99.90;;;;;;5058269;28;20036;-82
2021/05/24 06:41:33;;;;;;;3.72;0.90;;;10.80;99.90;;;;;;5057368;28;20096;-83
2021/05/24 06:43:59;;;;;;;1.95;0.90;;;10.70;99.90;;;;;;5051152;28;20051;-85
2021/05/24 06:46:26;;;;;;;2.22;0.90;;;10.70;99.90;;;;;;5080943;28;20021;-84
2021/05/24 06:48:51;;;;;;;3.28;0.80;;;10.80;99.90;;;;;;5078105;28;20024;-85
2021/05/24 06:51:17;;;;;;;1.92;0.70;;;10.80;99.90;;;;;;5077515;28;20374;-84
2021/05/24 06:53:43;;;;;;;2.83;0.90;;;11.00;99.90;;;;;;5070232;28;20108;-83
2021/05/24 06:56:08;;;;;;;1.92;0.80;;;11.10;99.90;;;;;;5039436;28;20486;-84
2021/05/24 06:58:34;;;;;;;2.00;0.70;;;11.30;99.90;;;;;;5063526;28;20032;-83
2021/05/24 07:01:01;;;;;;;2.58;0.88;;;11.50;99.90;;;;;;5052767;28;20047;-84
2021/05/24 07:03:26;;;;;;;1.85;0.70;;;11.60;99.90;;;;;;5077562;28;20024;-82
2021/05/24 07:05:52;;;;;;;1.90;0.88;;;11.70;99.90;;;;;;5077216;28;20039;-85
2021/05/24 07:08:18;;;;;;;2.83;0.82;;;11.80;99.90;;;;;;5056223;28;20051;-82
2021/05/24 07:10:43;;;;;;;2.72;0.85;;;11.90;99.90;;;;;;5078016;28;20020;-85
2021/05/24 07:13:09;;;;;;;2.45;0.85;;;11.90;99.90;;;;;;5074822;28;20060;-84
2021/05/24 07:15:35;;;;;;;1.88;0.85;;;11.90;99.90;;;;;;5069047;28;20400;-82
2021/05/24 07:18:01;;;;;;;3.95;0.90;;;11.90;99.90;;;;;;5081600;28;20059;-83
2021/05/24 07:20:27;;;;;;;1.95;0.82;;;11.90;99.90;;;;;;5081843;28;20047;-82
2021/05/24 07:22:52;;;;;;;1.77;0.82;;;11.90;99.90;;;;;;5076909;28;20027;-82
2021/05/24 07:25:18;;;;;;;3.30;0.90;;;11.90;99.90;;;;;;5088133;28;20028;-84
2021/05/24 07:27:44;;;;;;;6.60;0.98;;;11.80;99.90;;;;;;5074747;28;20392;-83
2021/05/24 07:30:11;;;;;;;7.32;1.10;;;11.90;99.90;;;;;;5091394;28;20427;-84
2021/05/24 07:32:37;;;;;;;4.30;1.02;;;11.90;99.90;;;;;;5069669;28;20396;-83
2021/05/24 07:35:03;;;;;;;2.95;0.98;;;12.10;99.90;;;;;;5083618;28;20099;-83
2021/05/24 07:37:29;;;;;;;2.25;0.93;;;12.20;99.90;;;;;;5046310;28;20112;-85
2021/05/24 07:39:54;;;;;;;2.08;0.77;;;12.30;99.90;;;;;;5086118;28;20039;-83
2021/05/24 07:42:20;;;;;;;2.10;0.77;;;12.50;99.90;;;;;;5067217;28;20020;-83
2021/05/24 07:44:46;;;;;;;2.40;0.95;;;12.50;99.90;;;;;;5085046;28;20061;-83
2021/05/24 07:47:11;;;;;;;2.10;0.98;;;12.60;99.90;;;;;;5082392;28;20113;-82
2021/05/24 07:57:16;;;;;;;3.17;1.38;;;12.80;99.90;;;;;;5090319;28;20044;-84
2021/05/24 07:59:50;;;;;;;3.47;1.17;;;12.80;99.90;;;;;;5091972;28;20032;-82
2021/05/24 08:02:18;;;;;;;4.18;1.20;;;12.20;99.90;;;;;;5097020;28;20080;-82
2021/05/24 08:04:46;;;;;;;2.75;1.08;;;12.50;99.90;;;;;;5092727;28;20040;-82
2021/05/24 08:07:23;;;;;;;3.67;1.45;;;12.60;99.90;;;;;;5079592;28;20113;-82
2021/05/24 08:09:58;;;;;;;3.17;1.23;;;12.60;99.90;;;;;;5094722;28;20016;-82
2021/05/24 08:12:37;;;;;;;4.97;1.52;;;12.80;99.90;;;;;;5073387;28;20019;-82
2021/05/24 08:15:12;;;;;;;2.45;1.15;;;13.00;99.90;;;;;;5077591;28;20039;-82
2021/05/24 08:17:46;;;;;;;2.90;1.15;;;13.40;99.90;;;;;;5079620;28;20044;-82
2021/05/24 08:20:22;;;;;;;2.83;1.30;;;13.40;99.90;;;;;;5079573;28;20104;-82
2021/05/24 08:23:15;;;;;;;3.58;1.15;;;13.40;99.90;;;;;;5079097;28;20035;-82
2021/05/24 08:25:41;;;;;;;3.92;1.17;;;14.10;99.90;;;;;;5074210;28;20051;-82
2021/05/24 08:28:10;;;;;;;2.03;0.75;;;13.80;99.90;;;;;;5077590;28;20488;-82
2021/05/24 08:30:45;;;;;;;3.60;1.05;;;13.90;99.90;;;;;;5080221;28;20032;-82
2021/05/24 08:33:30;;;;;;;2.53;1.00;;;14.00;99.90;;;;;;5098228;28;20036;-82
2021/05/24 08:35:59;;;;;;;1.42;0.60;;;14.30;99.90;;;;;;5072004;28;20021;-82
2021/05/24 08:42:03;;;;;;;3.20;0.63;;;14.20;99.90;;;;;;5059997;28;20052;-82
2021/05/24 08:44:34;;;;;;;2.30;0.90;;;14.40;99.90;;;;;;5087082;28;20055;-82
2021/05/24 08:47:03;;;;;;;2.22;0.50;;;14.40;99.90;;;;;;5099874;28;20087;-82
2021/05/24 08:49:56;;;;;;;2.13;0.98;;;14.50;99.90;;;;;;5084605;28;20024;-82
2021/05/24 08:52:24;;;;;;;4.78;0.80;;;14.60;99.90;;;;;;5069838;28;20013;-82
2021/05/24 08:54:56;;;;;;;2.05;0.60;;;15.00;99.90;;;;;;5096385;28;20477;-83
2021/05/24 08:57:40;;;;;;;1.45;0.60;;;15.30;99.90;;;;;;5082768;28;20032;-82
2021/05/24 09:00:08;;;;;;;1.88;0.80;;;15.50;99.90;;;;;;5087996;28;20469;-83
2021/05/24 09:02:40;;;;;;;1.65;0.57;;;15.70;99.90;;;;;;5070203;28;20036;-83
2021/05/24 09:05:14;;;;;;;1.50;0.57;;;15.60;99.90;;;;;;5081197;28;20063;-83
2021/05/24 09:07:51;;;;;;;2.35;0.50;;;15.50;99.90;;;;;;5083806;28;20032;-83
2021/05/24 09:10:21;;;;;;;1.67;0.43;;;15.50;99.90;;;;;;5079119;28;20119;-83
2021/05/24 09:12:52;;;;;;;1.65;0.40;;;15.50;99.90;;;;;;5081244;28;20028;-83
2021/05/24 09:15:26;;;;;;;1.47;0.40;;;15.40;99.90;;;;;;5064134;28;20029;-83
2021/05/24 09:18:02;;;;;;;2.53;0.50;;;15.50;99.90;;;;;;5082406;28;20659;-83
2021/05/24 09:20:33;;;;;;;1.17;0.57;;;15.80;99.90;;;;;;5083071;28;20279;-83
2021/05/24 09:23:38;;;;;;;1.77;0.65;;;16.10;99.90;;;;;;5083219;28;20028;-83
2021/05/24 09:26:13;;;;;;;2.42;0.60;;;16.30;99.90;;;;;;5029418;28;20056;-83
2021/05/24 09:28:51;;;;;;;1.98;0.45;;;16.50;99.90;;;;;;5065934;28;20020;-83
2021/05/24 09:31:25;;;;;;;1.65;0.30;;;16.50;99.90;;;;;;5080116;28;20082;-83
2021/05/24 09:33:53;;;;;;;3.47;0.82;;;16.30;98.40;;;;;;5082695;28;20063;-84
2021/05/24 09:36:20;;;;;;;1.42;0.47;;;16.50;99.90;;;;;;5079607;28;20032;-85
2021/05/24 09:38:51;;;;;;;1.48;0.68;;;16.70;99.90;;;;;;5080551;28;20385;-84
2021/05/24 09:41:19;;;;;;;0.90;0.30;;;16.80;99.90;;;;;;5063684;28;20024;-84
2021/05/24 09:43:53;;;;;;;0.70;0.20;;;16.90;98.50;;;;;;5081227;28;20039;-85
2021/05/24 09:46:22;;;;;;;1.60;0.35;;;16.70;99.40;;;;;;5073443;28;20029;-85
2021/05/24 09:48:51;;;;;;;0.63;0.20;;;16.80;99.20;;;;;;5083181;28;20027;-84
2021/05/24 09:51:22;;;;;;;0.85;0.28;;;17.00;99.60;;;;;;5064918;28;20500;-84
2021/05/24 09:53:55;;;;;;;1.13;0.30;;;16.90;99.40;;;;;;5064056;28;20032;-85
2021/05/24 09:56:21;;;;;;;2.40;0.40;;;16.90;98.80;;;;;;5064022;28;20067;-84
2021/05/24 09:59:17;;;;;;;0.95;0.20;;;17.00;96.80;;;;;;5091387;28;20044;-84
2021/05/24 10:01:56;;;;;;;0.68;0.25;;;17.40;98.10;;;;;;5065152;28;20024;-85
2021/05/24 10:04:31;;;;;;;2.47;0.30;;;17.50;96.20;;;;;;5080786;28;20033;-85
2021/05/24 10:07:02;;;;;;;1.65;0.30;;;17.80;97.80;;;;;;5081856;28;20028;-85
2021/05/24 10:09:31;;;;;;;0.93;0.40;;;18.00;97.00;;;;;;5080142;28;20024;-85
2021/05/24 10:11:59;;;;;;;0.50;0.20;;;18.10;96.50;;;;;;5077989;28;20028;-86
2021/05/24 10:14:25;;;;;;;0.60;0.20;;;18.20;95.60;;;;;;5072681;28;20021;-86
2021/05/24 10:16:56;;;;;;;1.02;0.35;;;18.30;95.70;;;;;;5073390;28;20385;-87
2021/05/24 10:19:22;;;;;;;1.48;0.40;;;18.30;95.40;;;;;;5059096;28;20028;-86
2021/05/24 10:21:50;;;;;;;0.75;0.30;;;18.40;93.70;;;;;;5055547;28;20540;-86
2021/05/24 10:24:18;;;;;;;2.65;0.40;;;18.30;94.20;;;;;;5055462;28;20052;-86
2021/05/24 10:26:44;;;;;;;1.58;0.38;;;18.20;93.60;;;;;;5065540;28;20439;-86
2021/05/24 10:29:11;;;;;;;1.92;0.40;;;18.30;93.20;;;;;;5055487;28;20566;-86
2021/05/24 10:31:37;;;;;;;1.50;0.50;;;18.40;94.10;;;;;;5055311;28;20025;-86
2021/05/24 10:34:13;;;;;;;0.80;0.30;;;18.30;93.60;;;;;;5055699;28;20029;-86
2021/05/24 10:36:40;;;;;;;0.82;0.30;;;18.20;93.80;;;;;;5055826;28;20033;-86
2021/05/24 10:39:12;;;;;;;0.70;0.30;;;18.20;93.80;;;;;;5055541;28;20046;-86
2021/05/24 10:41:58;;;;;;;1.88;0.40;;;18.30;94.80;;;;;;5054818;28;20515;-86
2021/05/24 10:44:38;;;;;;;0.88;0.30;;;18.30;93.10;;;;;;5056359;28;20477;-86
2021/05/24 10:47:19;;;;;;;1.58;0.30;;;18.30;93.20;;;;;;5056537;28;20365;-86
2021/05/24 10:50:01;;;;;;;1.55;0.30;;;18.20;93.60;;;;;;5054479;28;20119;-86
2021/05/24 10:52:27;;;;;;;2.45;0.40;;;18.20;93.50;;;;;;5070536;28;20055;-86
2021/05/24 10:54:54;;;;;;;0.75;0.20;;;18.20;93.70;;;;;;5073188;28;20031;-86
2021/05/24 10:57:20;;;;;;;2.10;0.40;;;18.40;93.10;;;;;;5074627;28;20469;-86
2021/05/24 10:59:48;;;;;;;1.23;0.40;;;18.30;92.90;;;;;;5091941;28;20036;-86
2021/05/24 11:02:29;;;;;;;1.10;0.30;;;18.40;93.80;;;;;;5074889;28;20021;-86
2021/05/24 11:05:04;;;;;;;1.80;0.40;;;18.40;92.90;;;;;;5093393;28;20040;-86
2021/05/24 11:07:50;;;;;;;0.77;0.25;;;18.40;92.50;;;;;;5075102;28;20031;-86
2021/05/24 11:10:19;;;;;;;0.98;0.40;;;18.30;92.60;;;;;;5054559;28;20311;-86
2021/05/24 11:12:46;;;;;;;1.58;0.25;;;18.40;92.20;;;;;;5054762;28;20020;-86
2021/05/24 11:15:14;;;;;;;1.42;0.30;;;18.50;91.10;;;;;;5054822;28;20040;-86
2021/05/24 11:17:58;;;;;;;1.70;0.30;;;18.40;90.20;;;;;;5055127;28;20034;-86
2021/05/24 11:20:36;;;;;;;1.45;0.35;;;18.40;91.90;;;;;;5072483;28;20028;-86
2021/05/24 11:26:21;;;;;;;1.83;0.32;;;18.60;92.40;;;;;;5072675;28;20127;-86
2021/05/24 11:28:54;;;;;;;2.78;0.30;;;19.00;92.30;;;;;;5067490;28;20039;-87
2021/05/24 11:31:29;;;;;;;1.33;0.50;;;19.20;90.20;;;;;;5054445;28;20406;-86
2021/05/24 11:33:57;;;;;;;1.73;0.40;;;19.40;86.40;;;;;;5054804;28;20164;-86
2021/05/24 11:36:29;;;;;;;1.70;0.40;;;19.50;84.60;;;;;;5067440;28;20043;-86
2021/05/24 11:39:16;;;;;;;;;;;19.70;86.70;;;;;;5055123;28;20033;-86
2021/05/24 11:41:44;;;;;;;1.02;0.30;;;19.60;86.40;;;;;;5054308;28;20367;-86
2021/05/24 11:44:10;;;;;;;2.30;0.30;;;20.00;89.10;;;;;;5068843;28;20032;-86
2021/05/24 11:46:54;;;;;;;1.20;0.28;;;20.00;87.30;;;;;;5054396;28;20020;-86
2021/05/24 11:49:30;;;;;;;1.42;0.40;;;19.60;87.10;;;;;;5054381;28;20311;-86
2021/05/24 11:51:56;;;;;;;3.22;0.50;;;19.70;86.90;;;;;;5062691;28;20024;-86
2021/05/24 11:54:25;;;;;;;0.80;0.40;;;19.80;88.70;;;;;;5053304;28;20085;-86
2021/05/24 11:56:53;;;;;;;2.13;0.30;;;19.90;84.90;;;;;;5054141;28;20043;-86
2021/05/24 11:59:21;;;;;;;0.63;0.20;;;19.90;85.90;;;;;;5063293;28;20021;-86
2021/05/24 12:01:49;;;;;;;1.48;0.40;;;19.60;83.40;;;;;;5054427;28;20044;-86
2021/05/24 12:04:21;;;;;;;2.00;0.40;;;19.70;84.10;;;;;;5054197;28;20029;-85
2021/05/24 12:07:09;;;;;;;0.75;0.22;;;19.60;83.70;;;;;;5055491;28;20389;-86
2021/05/24 12:09:53;;;;;;;0.40;0.20;;;19.70;84.60;;;;;;5071953;28;20580;-86
2021/05/24 12:12:22;;;;;;;0.95;0.30;;;19.80;81.50;;;;;;5056871;28;20027;-86
2021/05/24 12:14:56;;;;;;;0.70;0.32;;;20.20;82.50;;;;;;5056607;28;20020;-86
2021/05/24 12:17:27;;;;;;;1.92;0.30;;;20.10;80.50;;;;;;5055688;28;20425;-86
2021/05/24 12:19:54;;;;;;;0.88;0.20;;;20.20;83.30;;;;;;5070254;28;20054;-86
2021/05/24 12:22:26;;;;;;;3.15;0.43;;;20.10;80.00;;;;;;5053312;28;20032;-86
2021/05/24 12:24:55;;;;;;;2.00;0.30;;;20.10;79.90;;;;;;5053557;28;20063;-86
2021/05/24 12:27:24;;;;;;;0.77;0.30;;;20.00;80.40;;;;;;5053590;28;20051;-86
2021/05/24 12:30:17;;;;;;;1.60;0.40;;;20.10;82.20;;;;;;5053549;28;20356;-86
2021/05/24 12:32:47;;;;;;;1.25;0.30;;;19.90;78.70;;;;;;5053351;28;20552;-86
2021/05/24 12:35:17;;;;;;;1.25;0.30;;;19.90;80.80;;;;;;5071609;28;20402;-86
2021/05/24 12:37:54;;;;;;;0.90;0.40;;;19.60;79.10;;;;;;5053981;28;20028;-86
2021/05/24 12:40:23;;;;;;;0.77;0.25;;;19.60;81.40;;;;;;5052983;28;20024;-86
2021/05/24 12:42:50;;;;;;;1.15;0.20;;;19.70;79.50;;;;;;5053269;28;20024;-86
2021/05/24 12:45:16;;;;;;;1.25;0.20;;;19.70;78.90;;;;;;5053615;28;20028;-86
2021/05/24 12:47:41;;;;;;;1.45;0.30;;;19.70;78.00;;;;;;5053334;28;20027;-86
2021/05/24 12:50:15;;;;;;;0.80;0.30;;;19.80;76.30;;;;;;5052974;28;20103;-87
2021/05/24 12:52:41;;;;;;;0.30;0.10;;;19.80;76.20;;;;;;5070690;28;20357;-86
2021/05/24 12:55:13;;;;;;;1.15;0.20;;;19.90;75.90;;;;;;5055379;28;20112;-86
2021/05/24 12:57:40;;;;;;;1.98;0.32;;;19.70;71.70;;;;;;5062317;28;20374;-86
2021/05/24 13:00:07;;;;;;;1.27;0.25;;;19.70;74.80;;;;;;5059640;28;20048;-87
2021/05/24 13:02:32;;;;;;;0.70;0.20;;;19.70;74.30;;;;;;5070322;28;20021;-86
2021/05/24 13:05:20;;;;;;;1.17;0.20;;;19.60;73.90;;;;;;5070955;28;20024;-86
2021/05/24 13:07:53;;;;;;;1.42;0.20;;;19.50;73.50;;;;;;5052847;28;20115;-86
2021/05/24 13:10:26;;;;;;;2.17;0.40;;;19.60;76.20;;;;;;5069283;28;20025;-86
2021/05/24 13:12:55;;;;;;;3.20;0.40;;;19.50;75.50;;;;;;5069675;28;20029;-86